Time,TemperatureF,DewpointF,PressureIn,WindDirection,WindDirectionDegrees,WindSpeedMPH,WindSpeedGustMPH,Humidity,HourlyPrecipIn,Conditions,Clouds,dailyrainin,SoftwareType,DateUTC
2013-01-14 00:00:00,28.8,25.7,30.02,NW,306,8.0,15.0,88,0.00,,,0.00,WeatherCatV1.10B1784,2013-01-14 05:00:00,
2013-01-14 00:05:00,28.7,25.6,30.02,WNW,299,4.0,11.0,88,0.00,,,0.00,WeatherCatV1.10B1784,2013-01-14 05:05:00,
2013-01-14 00:10:00,28.5,25.4,30.02,West,277,9.0,18.0,88,0.00,,,0.00,WeatherCatV1.10B1784,2013-01-14 05:10:00,
2013-01-14 00:15:00,28.4,25.3,30.02,West,278,10.0,15.0,88,0.00,,,0.00,WeatherCatV1.10B1784,2013-01-14 05:15:00,
2013-01-14 00:20:00,28.3,25.2,30.02,NW,305,6.0,15.0,88,0.00,,,0.00,WeatherCatV1.10B1784,2013-01-14 05:20:00,
2013-01-14 00:25:00,28.2,25.1,30.03,NW,308,11.0,13.0,88,0.00,,,0.00,WeatherCatV1.10B1784,2013-01-14 05:25:00,
2013-01-14 00:30:00,28.2,25.1,30.03,NW,304,10.0,12.0,88,0.00,,,0.00,WeatherCatV1.10B1784,2013-01-14 05:30:00,
2013-01-14 00:35:00,28.1,24.7,30.03,NW,309,8.0,12.0,87,0.00,,,0.00,WeatherCatV1.10B1784,2013-01-14 05:35:00,
2013-01-14 00:40:00,28.1,25.0,30.03,WNW,294,5.0,10.0,88,0.00,,,0.00,WeatherCatV1.10B1784,2013-01-14 05:40:00,
2013-01-14 00:45:00,28.0,24.6,30.04,West,281,12.0,14.0,87,0.00,,,0.00,WeatherCatV1.10B1784,2013-01-14 05:45:00,
2013-01-14 00:50:00,28.0,24.9,30.04,WNW,286,4.0,9.0,88,0.00,,,0.00,WeatherCatV1.10B1784,2013-01-14 05:50:00,
2013-01-14 00:55:00,28.0,24.9,30.04,WNW,282,6.0,9.0,88,0.00,,,0.00,WeatherCatV1.10B1784,2013-01-14 05:55:00,
2013-01-14 01:00:00,27.9,24.3,30.05,WNW,288,5.0,9.0,86,0.00,,,0.00,WeatherCatV1.10B1784,2013-01-14 06:00:00,
2013-01-14 01:05:00,27.7,23.5,30.05,SW,232,10.0,17.0,84,0.00,,,0.00,WeatherCatV1.10B1784,2013-01-14 06:05:00,
2013-01-14 01:10:00,27.6,23.7,30.05,West,275,6.0,9.0,85,0.00,,,0.00,WeatherCatV1.10B1784,2013-01-14 06:10:00,
2013-01-14 01:15:00,27.5,23.6,30.06,WNW,288,7.0,17.0,85,0.00,,,0.00,WeatherCatV1.10B1784,2013-01-14 06:15:00,
2013-01-14 01:20:00,27.4,23.8,30.06,West,267,10.0,15.0,86,0.00,,,0.00,WeatherCatV1.10B1784,2013-01-14 06:20:00,
2013-01-14 01:25:00,27.3,23.4,30.06,West,272,7.0,14.0,85,0.00,,,0.00,WeatherCatV1.10B1784,2013-01-14 06:25:00,
2013-01-14 01:30:00,27.1,23.2,30.06,West,275,9.0,18.0,85,0.00,,,0.00,WeatherCatV1.10B1784,2013-01-14 06:30:00,
2013-01-14 01:35:00,27.0,23.4,30.06,WNW,284,8.0,15.0,86,0.00,,,0.00,WeatherCatV1.10B1784,2013-01-14 06:35:00,
2013-01-14 01:40:00,27.0,23.7,30.07,NW,320,6.0,8.0,87,0.00,,,0.00,WeatherCatV1.10B1784,2013-01-14 06:40:00,
2013-01-14 01:45:00,26.9,23.3,30.07,WNW,287,3.0,11.0,86,0.00,,,0.00,WeatherCatV1.10B1784,2013-01-14 06:45:00,
2013-01-14 01:48:00,26.9,23.6,30.07,WNW,298,7.0,7.0,87,0.00,,,0.00,WeatherCatV1.10B1784,2013-01-14 06:48:00,
2013-01-14 01:53:00,26.8,23.5,30.07,West,281,9.0,10.0,87,0.00,,,0.00,WeatherCatV1.10B1784,2013-01-14 06:53:00,
2013-01-14 01:58:00,26.7,23.4,30.07,WNW,302,8.0,12.0,87,0.00,,,0.00,WeatherCatV1.10B1784,2013-01-14 06:58:00,
2013-01-14 02:03:00,26.7,23.4,30.08,NW,319,6.0,14.0,87,0.00,,,0.00,WeatherCatV1.10B1784,2013-01-14 07:03:00,
2013-01-14 02:08:00,26.7,23.4,30.08,WNW,284,8.0,13.0,87,0.00,,,0.00,WeatherCatV1.10B1784,2013-01-14 07:08:00,
2013-01-14 02:13:00,26.6,23.3,30.09,WNW,282,6.0,11.0,87,0.00,,,0.00,WeatherCatV1.10B1784,2013-01-14 07:13:00,
2013-01-14 02:18:00,26.6,23.5,30.09,WNW,282,5.0,9.0,88,0.00,,,0.00,WeatherCatV1.10B1784,2013-01-14 07:18:00,
2013-01-14 02:23:00,26.6,23.5,30.09,NW,322,6.0,10.0,88,0.00,,,0.00,WeatherCatV1.10B1784,2013-01-14 07:23:00,
2013-01-14 02:28:00,26.5,23.4,30.10,West,269,8.0,11.0,88,0.00,,,0.00,WeatherCatV1.10B1784,2013-01-14 07:28:00,
2013-01-14 02:33:00,26.3,23.0,30.10,NW,322,6.0,14.0,87,0.00,,,0.00,WeatherCatV1.10B1784,2013-01-14 07:33:00,
2013-01-14 02:39:00,26.0,22.4,30.11,WSW,258,10.0,12.0,86,0.00,,,0.00,WeatherCatV1.10B1784,2013-01-14 07:39:00,
2013-01-14 02:43:00,25.7,22.4,30.11,West,281,7.0,12.0,87,0.00,,,0.00,WeatherCatV1.10B1784,2013-01-14 07:43:00,
2013-01-14 02:49:00,25.4,21.8,30.12,WNW,290,8.0,15.0,86,0.00,,,0.00,WeatherCatV1.10B1784,2013-01-14 07:49:00,
2013-01-14 02:54:00,25.3,21.7,30.12,WNW,300,4.0,11.0,86,0.00,,,0.00,WeatherCatV1.10B1784,2013-01-14 07:54:00,
2013-01-14 02:59:00,25.2,21.9,30.13,WNW,289,9.0,14.0,87,0.00,,,0.00,WeatherCatV1.10B1784,2013-01-14 07:59:00,
2013-01-14 03:04:00,25.1,21.5,30.14,NW,308,8.0,12.0,86,0.00,,,0.00,WeatherCatV1.10B1784,2013-01-14 08:04:00,
2013-01-14 03:09:00,25.0,21.7,30.14,WNW,296,4.0,12.0,87,0.00,,,0.00,WeatherCatV1.10B1784,2013-01-14 08:09:00,
2013-01-14 03:14:00,25.0,21.7,30.14,West,269,8.0,13.0,87,0.00,,,0.00,WeatherCatV1.10B1784,2013-01-14 08:14:00,
2013-01-14 03:19:00,24.8,21.2,30.15,West,273,8.0,10.0,86,0.00,,,0.00,WeatherCatV1.10B1784,2013-01-14 08:19:00,
2013-01-14 03:24:00,24.5,20.9,30.15,WSW,254,7.0,15.0,86,0.00,,,0.00,WeatherCatV1.10B1784,2013-01-14 08:24:00,
2013-01-14 03:29:00,24.3,20.7,30.16,West,271,5.0,14.0,86,0.00,,,0.00,WeatherCatV1.10B1784,2013-01-14 08:29:00,
2013-01-14 03:34:00,24.2,20.6,30.17,West,271,4.0,15.0,86,0.00,,,0.00,WeatherCatV1.10B1784,2013-01-14 08:34:00,
2013-01-14 03:39:00,24.0,20.4,30.17,WNW,285,12.0,17.0,86,0.00,,,0.00,WeatherCatV1.10B1784,2013-01-14 08:39:00,
2013-01-14 03:44:00,23.8,20.2,30.17,WNW,293,6.0,14.0,86,0.00,,,0.00,WeatherCatV1.10B1784,2013-01-14 08:44:00,
2013-01-14 03:49:00,23.7,20.1,30.17,NW,318,16.0,18.0,86,0.00,,,0.00,WeatherCatV1.10B1784,2013-01-14 08:49:00,
2013-01-14 03:54:00,23.5,19.9,30.17,WNW,289,10.0,19.0,86,0.00,,,0.00,WeatherCatV1.10B1784,2013-01-14 08:54:00,
2013-01-14 03:59:00,23.3,19.7,30.17,NNW,334,20.0,20.0,86,0.00,,,0.00,WeatherCatV1.10B1784,2013-01-14 08:59:00,
2013-01-14 04:04:00,23.3,19.5,30.16,WNW,290,16.0,18.0,85,0.00,,,0.00,WeatherCatV1.10B1784,2013-01-14 09:04:00,
2013-01-14 04:09:00,23.3,19.5,30.16,WNW,288,16.0,21.0,85,0.00,,,0.00,WeatherCatV1.10B1784,2013-01-14 09:09:00,
2013-01-14 04:14:00,23.1,19.5,30.16,WNW,286,12.0,18.0,86,0.00,,,0.00,WeatherCatV1.10B1784,2013-01-14 09:14:00,
2013-01-14 04:19:00,23.1,19.5,30.16,NW,304,6.0,11.0,86,0.00,,,0.00,WeatherCatV1.10B1784,2013-01-14 09:19:00,
2013-01-14 04:24:00,23.1,19.5,30.17,West,279,11.0,15.0,86,0.00,,,0.00,WeatherCatV1.10B1784,2013-01-14 09:24:00,
2013-01-14 04:29:00,23.1,19.5,30.17,NW,309,11.0,13.0,86,0.00,,,0.00,WeatherCatV1.10B1784,2013-01-14 09:29:00,
2013-01-14 04:34:00,23.1,19.5,30.17,NW,309,10.0,11.0,86,0.00,,,0.00,WeatherCatV1.10B1784,2013-01-14 09:34:00,
2013-01-14 04:39:00,23.1,19.5,30.18,WNW,282,6.0,15.0,86,0.00,,,0.00,WeatherCatV1.10B1784,2013-01-14 09:39:00,
2013-01-14 04:44:00,23.1,19.8,30.18,West,269,6.0,9.0,87,0.00,,,0.00,WeatherCatV1.10B1784,2013-01-14 09:44:00,
2013-01-14 04:49:00,23.1,19.5,30.18,WNW,290,11.0,13.0,86,0.00,,,0.00,WeatherCatV1.10B1784,2013-01-14 09:49:00,
2013-01-14 04:54:00,23.0,19.5,30.18,WNW,303,7.0,18.0,86,0.00,,,0.00,WeatherCatV1.10B1784,2013-01-14 09:54:00,
2013-01-14 04:59:00,23.0,19.5,30.18,WNW,302,4.0,14.0,86,0.00,,,0.00,WeatherCatV1.10B1784,2013-01-14 09:59:00,
2013-01-14 05:04:00,23.0,19.5,30.18,West,279,11.0,16.0,86,0.00,,,0.00,WeatherCatV1.10B1784,2013-01-14 10:04:00,
2013-01-14 05:09:00,23.0,19.5,30.19,West,277,8.0,14.0,86,0.00,,,0.00,WeatherCatV1.10B1784,2013-01-14 10:09:00,
2013-01-14 05:14:00,23.1,19.8,30.19,WNW,284,10.0,11.0,87,0.00,,,0.00,WeatherCatV1.10B1784,2013-01-14 10:14:00,
2013-01-14 05:19:00,23.0,19.5,30.19,West,270,8.0,11.0,86,0.00,,,0.00,WeatherCatV1.10B1784,2013-01-14 10:19:00,
2013-01-14 05:24:00,22.9,19.4,30.20,WNW,298,9.0,12.0,86,0.00,,,0.00,WeatherCatV1.10B1784,2013-01-14 10:24:00,
2013-01-14 05:29:00,22.9,19.4,30.20,WNW,284,16.0,19.0,86,0.00,,,0.00,WeatherCatV1.10B1784,2013-01-14 10:29:00,
2013-01-14 05:34:00,22.7,18.9,30.20,WNW,288,13.0,16.0,85,0.00,,,0.00,WeatherCatV1.10B1784,2013-01-14 10:34:00,
2013-01-14 05:39:00,22.6,18.8,30.20,WNW,300,8.0,17.0,85,0.00,,,0.00,WeatherCatV1.10B1784,2013-01-14 10:39:00,
2013-01-14 05:44:00,22.6,19.1,30.21,WNW,289,6.0,10.0,86,0.00,,,0.00,WeatherCatV1.10B1784,2013-01-14 10:44:00,
2013-01-14 05:49:00,22.7,19.2,30.21,WNW,288,12.0,17.0,86,0.00,,,0.00,WeatherCatV1.10B1784,2013-01-14 10:49:00,
2013-01-14 05:54:00,22.7,19.2,30.22,West,265,6.0,15.0,86,0.00,,,0.00,WeatherCatV1.10B1784,2013-01-14 10:54:00,
2013-01-14 05:59:00,22.6,19.1,30.22,WNW,285,15.0,15.0,86,0.00,,,0.00,WeatherCatV1.10B1784,2013-01-14 10:59:00,
2013-01-14 06:04:00,22.5,19.0,30.22,West,277,12.0,14.0,86,0.00,,,0.00,WeatherCatV1.10B1784,2013-01-14 11:04:00,
2013-01-14 06:09:00,22.5,19.0,30.22,WNW,293,13.0,16.0,86,0.00,,,0.00,WeatherCatV1.10B1784,2013-01-14 11:09:00,
2013-01-14 06:14:00,22.4,18.6,30.22,WNW,287,11.0,20.0,85,0.00,,,0.00,WeatherCatV1.10B1784,2013-01-14 11:14:00,
2013-01-14 06:19:00,22.4,18.9,30.23,WNW,292,11.0,11.0,86,0.00,,,0.00,WeatherCatV1.10B1784,2013-01-14 11:19:00,
2013-01-14 06:24:00,22.3,18.8,30.23,West,279,15.0,17.0,86,0.00,,,0.00,WeatherCatV1.10B1784,2013-01-14 11:24:00,
2013-01-14 06:29:00,22.3,18.5,30.23,NW,306,12.0,18.0,85,0.00,,,0.00,WeatherCatV1.10B1784,2013-01-14 11:29:00,
2013-01-14 06:34:00,22.4,18.9,30.23,WNW,299,7.0,15.0,86,0.00,,,0.00,WeatherCatV1.10B1784,2013-01-14 11:34:00,
2013-01-14 06:39:00,22.4,18.9,30.24,West,279,8.0,18.0,86,0.00,,,0.00,WeatherCatV1.10B1784,2013-01-14 11:39:00,
2013-01-14 06:44:00,22.5,19.0,30.24,West,267,10.0,14.0,86,0.00,,,0.00,WeatherCatV1.10B1784,2013-01-14 11:44:00,
2013-01-14 06:49:00,22.6,19.1,30.24,NW,313,5.0,13.0,86,0.00,,,0.00,WeatherCatV1.10B1784,2013-01-14 11:49:00,
2013-01-14 06:54:00,22.6,19.1,30.24,WNW,303,4.0,13.0,86,0.00,,,0.00,WeatherCatV1.10B1784,2013-01-14 11:54:00,
2013-01-14 06:59:00,22.6,18.8,30.25,West,273,8.0,16.0,85,0.00,,,0.00,WeatherCatV1.10B1784,2013-01-14 11:59:00,
2013-01-14 07:04:00,22.6,18.8,30.25,West,281,9.0,19.0,85,0.00,,,0.00,WeatherCatV1.10B1784,2013-01-14 12:04:00,
2013-01-14 07:09:00,22.6,18.8,30.25,NNW,336,10.0,15.0,85,0.00,,,0.00,WeatherCatV1.10B1784,2013-01-14 12:09:00,
2013-01-14 07:14:00,22.6,18.8,30.25,WNW,284,10.0,14.0,85,0.00,,,0.00,WeatherCatV1.10B1784,2013-01-14 12:14:00,
2013-01-14 07:19:00,22.6,18.8,30.26,NW,317,7.0,9.0,85,0.00,,,0.00,WeatherCatV1.10B1784,2013-01-14 12:19:00,
2013-01-14 07:24:00,22.5,18.4,30.27,WNW,303,6.0,16.0,84,0.00,,,0.00,WeatherCatV1.10B1784,2013-01-14 12:24:00,
2013-01-14 07:29:00,22.4,18.3,30.27,NW,310,9.0,15.0,84,0.00,,,0.00,WeatherCatV1.10B1784,2013-01-14 12:29:00,
2013-01-14 07:34:00,22.2,18.1,30.27,West,277,10.0,11.0,84,0.00,,,0.00,WeatherCatV1.10B1784,2013-01-14 12:34:00,
2013-01-14 07:39:00,22.2,18.4,30.27,WNW,287,8.0,12.0,85,0.00,,,0.00,WeatherCatV1.10B1784,2013-01-14 12:39:00,
2013-01-14 07:44:00,22.2,18.1,30.27,WNW,291,4.0,9.0,84,0.00,,,0.00,WeatherCatV1.10B1784,2013-01-14 12:44:00,
2013-01-14 07:49:00,22.2,18.1,30.27,WNW,285,7.0,12.0,84,0.00,,,0.00,WeatherCatV1.10B1784,2013-01-14 12:49:00,
2013-01-14 07:54:00,22.3,18.5,30.27,West,279,6.0,13.0,85,0.00,,,0.00,WeatherCatV1.10B1784,2013-01-14 12:54:00,
2013-01-14 07:59:00,22.3,18.5,30.28,West,274,7.0,8.0,85,0.00,,,0.00,WeatherCatV1.10B1784,2013-01-14 12:59:00,
2013-01-14 08:04:00,22.3,18.5,30.28,NW,325,2.0,11.0,85,0.00,,,0.00,WeatherCatV1.10B1784,2013-01-14 13:04:00,
2013-01-14 08:09:00,22.3,18.5,30.28,NW,312,8.0,13.0,85,0.00,,,0.00,WeatherCatV1.10B1784,2013-01-14 13:09:00,
2013-01-14 08:14:00,22.3,18.5,30.29,WNW,288,9.0,13.0,85,0.00,,,0.00,WeatherCatV1.10B1784,2013-01-14 13:14:00,
2013-01-14 08:19:00,22.3,18.5,30.29,WNW,301,8.0,11.0,85,0.00,,,0.00,WeatherCatV1.10B1784,2013-01-14 13:19:00,
2013-01-14 08:24:00,22.4,18.6,30.30,WNW,302,10.0,13.0,85,0.00,,,0.00,WeatherCatV1.10B1784,2013-01-14 13:24:00,
2013-01-14 08:29:00,22.5,19.0,30.30,NW,305,10.0,12.0,86,0.00,,,0.00,WeatherCatV1.10B1784,2013-01-14 13:29:00,
2013-01-14 08:34:00,22.5,18.7,30.31,NW,315,4.0,9.0,85,0.00,,,0.00,WeatherCatV1.10B1784,2013-01-14 13:34:00,
2013-01-14 08:39:00,22.5,18.7,30.31,NW,315,2.0,6.0,85,0.00,,,0.00,WeatherCatV1.10B1784,2013-01-14 13:39:00,
2013-01-14 08:44:00,22.4,18.6,30.31,NW,319,5.0,10.0,85,0.00,,,0.00,WeatherCatV1.10B1784,2013-01-14 13:44:00,
2013-01-14 08:49:00,22.4,18.9,30.31,NW,317,4.0,7.0,86,0.00,,,0.00,WeatherCatV1.10B1784,2013-01-14 13:49:00,
2013-01-14 08:54:00,22.2,18.1,30.31,WNW,296,10.0,13.0,84,0.00,,,0.00,WeatherCatV1.10B1784,2013-01-14 13:54:00,
2013-01-14 08:59:00,22.0,17.9,30.31,WNW,285,4.0,13.0,84,0.00,,,0.00,WeatherCatV1.10B1784,2013-01-14 13:59:00,
2013-01-14 09:04:00,21.8,17.2,30.32,NW,325,5.0,9.0,82,0.00,,,0.00,WeatherCatV1.10B1784,2013-01-14 14:04:00,
2013-01-14 09:09:00,21.5,16.3,30.32,NW,325,12.0,15.0,80,0.00,,,0.00,WeatherCatV1.10B1784,2013-01-14 14:09:00,
2013-01-14 09:14:00,21.5,16.3,30.32,NNW,338,9.0,12.0,80,0.00,,,0.00,WeatherCatV1.10B1784,2013-01-14 14:14:00,
2013-01-14 09:19:00,21.8,16.3,30.32,NW,313,10.0,13.0,79,0.00,,,0.00,WeatherCatV1.10B1784,2013-01-14 14:19:00,
2013-01-14 09:24:00,22.0,16.5,30.33,West,281,9.0,17.0,79,0.00,,,0.00,WeatherCatV1.10B1784,2013-01-14 14:24:00,
2013-01-14 09:29:00,22.2,16.7,30.34,NW,311,5.0,10.0,79,0.00,,,0.00,WeatherCatV1.10B1784,2013-01-14 14:29:00,
2013-01-14 09:34:00,22.5,17.0,30.34,West,263,9.0,10.0,79,0.00,,,0.00,WeatherCatV1.10B1784,2013-01-14 14:34:00,
2013-01-14 09:39:00,22.7,17.2,30.34,West,279,12.0,12.0,79,0.00,,,0.00,WeatherCatV1.10B1784,2013-01-14 14:39:00,
2013-01-14 09:44:00,22.6,16.8,30.34,WNW,301,9.0,13.0,78,0.00,,,0.00,WeatherCatV1.10B1784,2013-01-14 14:44:00,
2013-01-14 09:49:00,22.3,16.5,30.35,NW,311,7.0,11.0,78,0.00,,,0.00,WeatherCatV1.10B1784,2013-01-14 14:49:00,
2013-01-14 09:54:00,22.1,16.6,30.35,WNW,299,6.0,13.0,79,0.00,,,0.00,WeatherCatV1.10B1784,2013-01-14 14:54:00,
2013-01-14 09:59:00,22.2,17.0,30.35,NW,315,5.0,9.0,80,0.00,,,0.00,WeatherCatV1.10B1784,2013-01-14 14:59:00,
2013-01-14 10:04:00,22.3,17.1,30.35,NNW,341,5.0,9.0,80,0.00,,,0.00,WeatherCatV1.10B1784,2013-01-14 15:04:00,
2013-01-14 10:09:00,22.2,17.3,30.35,NW,323,6.0,11.0,81,0.00,,,0.00,WeatherCatV1.10B1784,2013-01-14 15:09:00,
2013-01-14 10:14:00,22.1,16.9,30.35,West,280,6.0,11.0,80,0.00,,,0.00,WeatherCatV1.10B1784,2013-01-14 15:14:00,
2013-01-14 10:19:00,22.1,17.2,30.35,WNW,300,8.0,14.0,81,0.00,,,0.00,WeatherCatV1.10B1784,2013-01-14 15:19:00,
2013-01-14 10:24:00,22.0,17.1,30.35,NNW,343,7.0,8.0,81,0.00,,,0.00,WeatherCatV1.10B1784,2013-01-14 15:24:00,
2013-01-14 10:29:00,22.1,17.2,30.35,NW,312,4.0,9.0,81,0.00,,,0.00,WeatherCatV1.10B1784,2013-01-14 15:29:00,
2013-01-14 10:34:00,22.1,17.2,30.36,NNW,333,5.0,7.0,81,0.00,,,0.00,WeatherCatV1.10B1784,2013-01-14 15:34:00,
2013-01-14 10:39:00,22.1,17.2,30.36,WNW,302,5.0,7.0,81,0.00,,,0.00,WeatherCatV1.10B1784,2013-01-14 15:39:00,
2013-01-14 10:44:00,22.2,17.3,30.36,WNW,282,4.0,7.0,81,0.00,,,0.00,WeatherCatV1.10B1784,2013-01-14 15:44:00,
2013-01-14 10:49:00,22.3,17.7,30.36,NW,309,7.0,7.0,82,0.00,,,0.00,WeatherCatV1.10B1784,2013-01-14 15:49:00,
2013-01-14 10:54:00,22.3,17.4,30.36,NW,313,4.0,6.0,81,0.00,,,0.00,WeatherCatV1.10B1784,2013-01-14 15:54:00,
2013-01-14 10:59:00,22.4,17.8,30.36,NW,319,3.0,6.0,82,0.00,,,0.00,WeatherCatV1.10B1784,2013-01-14 15:59:00,
2013-01-14 11:04:00,22.5,17.9,30.36,West,280,6.0,7.0,82,0.00,,,0.00,WeatherCatV1.10B1784,2013-01-14 16:04:00,
2013-01-14 11:09:00,22.6,18.0,30.36,NNW,344,3.0,7.0,82,0.00,,,0.00,WeatherCatV1.10B1784,2013-01-14 16:09:00,
2013-01-14 11:14:00,22.7,18.0,30.35,NW,311,5.0,7.0,82,0.00,,,0.00,WeatherCatV1.10B1784,2013-01-14 16:14:00,
2013-01-14 11:19:00,22.6,17.7,30.35,West,280,4.0,8.0,81,0.00,,,0.00,WeatherCatV1.10B1784,2013-01-14 16:19:00,
2013-01-14 11:24:00,22.6,17.7,30.35,WNW,287,6.0,9.0,81,0.00,,,0.00,WeatherCatV1.10B1784,2013-01-14 16:24:00,
2013-01-14 11:29:00,22.6,17.7,30.35,NW,305,3.0,7.0,81,0.00,,,0.00,WeatherCatV1.10B1784,2013-01-14 16:29:00,
2013-01-14 11:34:00,22.7,17.8,30.35,NNW,329,2.0,5.0,81,0.00,,,0.00,WeatherCatV1.10B1784,2013-01-14 16:34:00,
2013-01-14 11:39:00,22.8,18.1,30.34,NNW,336,4.0,8.0,82,0.00,,,0.00,WeatherCatV1.10B1784,2013-01-14 16:39:00,
2013-01-14 11:44:00,22.9,18.0,30.34,NW,308,2.0,4.0,81,0.00,,,0.00,WeatherCatV1.10B1784,2013-01-14 16:44:00,
2013-01-14 11:49:00,22.9,18.0,30.34,NW,313,4.0,4.0,81,0.00,,,0.00,WeatherCatV1.10B1784,2013-01-14 16:49:00,
2013-01-14 11:54:00,22.9,18.0,30.34,NW,309,1.0,6.0,81,0.00,,,0.00,WeatherCatV1.10B1784,2013-01-14 16:54:00,
2013-01-14 11:59:00,22.8,17.9,30.33,North,350,4.0,7.0,81,0.00,,,0.00,WeatherCatV1.10B1784,2013-01-14 16:59:00,
2013-01-14 12:04:00,22.8,17.6,30.33,NNE,21,4.0,9.0,80,0.00,,,0.00,WeatherCatV1.10B1784,2013-01-14 17:04:00,
2013-01-14 12:09:00,22.7,17.8,30.32,NNW,331,6.0,9.0,81,0.00,,,0.00,WeatherCatV1.10B1784,2013-01-14 17:09:00,
2013-01-14 12:14:00,22.6,17.4,30.32,NNW,348,4.0,7.0,80,0.00,,,0.00,WeatherCatV1.10B1784,2013-01-14 17:14:00,
2013-01-14 12:19:00,22.7,17.5,30.32,WNW,303,3.0,6.0,80,0.00,,,0.00,WeatherCatV1.10B1784,2013-01-14 17:19:00,
2013-01-14 12:24:00,22.7,17.8,30.31,NW,325,3.0,4.0,81,0.00,,,0.00,WeatherCatV1.10B1784,2013-01-14 17:24:00,
2013-01-14 12:29:00,22.8,17.9,30.32,NW,315,3.0,7.0,81,0.00,,,0.00,WeatherCatV1.10B1784,2013-01-14 17:29:00,
2013-01-14 12:34:00,22.9,18.0,30.32,NNW,338,3.0,6.0,81,0.00,,,0.00,WeatherCatV1.10B1784,2013-01-14 17:34:00,
2013-01-14 12:39:00,22.9,18.0,30.33,West,274,7.0,7.0,81,0.00,,,0.00,WeatherCatV1.10B1784,2013-01-14 17:39:00,
2013-01-14 12:44:00,23.1,18.2,30.33,NNW,341,3.0,6.0,81,0.00,,,0.00,WeatherCatV1.10B1784,2013-01-14 17:44:00,
2013-01-14 12:49:00,23.0,18.1,30.32,West,281,6.0,6.0,81,0.00,,,0.00,WeatherCatV1.10B1784,2013-01-14 17:49:00,
2013-01-14 12:54:00,23.0,18.1,30.32,NE,46,5.0,6.0,81,0.00,,,0.00,WeatherCatV1.10B1784,2013-01-14 17:54:00,
2013-01-14 12:59:00,23.0,18.1,30.32,NNW,338,5.0,5.0,81,0.00,,,0.00,WeatherCatV1.10B1784,2013-01-14 17:59:00,
2013-01-14 13:04:00,23.1,18.2,30.31,North,5,2.0,4.0,81,0.00,,,0.00,WeatherCatV1.10B1784,2013-01-14 18:04:00,
2013-01-14 13:09:00,23.2,18.3,30.31,North,355,3.0,7.0,81,0.00,,,0.00,WeatherCatV1.10B1784,2013-01-14 18:09:00,
2013-01-14 13:14:00,23.2,18.0,30.32,NNW,343,3.0,7.0,80,0.00,,,0.00,WeatherCatV1.10B1784,2013-01-14 18:14:00,
2013-01-14 13:19:00,23.3,18.3,30.32,NW,305,3.0,4.0,81,0.00,,,0.00,WeatherCatV1.10B1784,2013-01-14 18:19:00,
2013-01-14 13:24:00,23.3,18.3,30.32,NNW,346,2.0,3.0,81,0.00,,,0.00,WeatherCatV1.10B1784,2013-01-14 18:24:00,
2013-01-14 13:29:00,23.4,18.2,30.33,WNW,294,3.0,6.0,80,0.00,,,0.00,WeatherCatV1.10B1784,2013-01-14 18:29:00,
2013-01-14 13:34:00,23.4,18.2,30.33,NNE,15,3.0,5.0,80,0.00,,,0.00,WeatherCatV1.10B1784,2013-01-14 18:34:00,
2013-01-14 13:39:00,23.4,17.9,30.33,NNW,330,5.0,6.0,79,0.00,,,0.00,WeatherCatV1.10B1784,2013-01-14 18:39:00,
2013-01-14 13:44:00,23.2,17.7,30.33,NNW,331,2.0,3.0,79,0.00,,,0.00,WeatherCatV1.10B1784,2013-01-14 18:44:00,
2013-01-14 13:49:00,23.3,17.8,30.33,NNW,339,3.0,4.0,79,0.00,,,0.00,WeatherCatV1.10B1784,2013-01-14 18:49:00,
2013-01-14 13:54:00,23.3,17.5,30.33,NW,320,3.0,9.0,78,0.00,,,0.00,WeatherCatV1.10B1784,2013-01-14 18:54:00,
2013-01-14 13:59:00,23.4,18.2,30.34,NW,312,2.0,4.0,80,0.00,,,0.00,WeatherCatV1.10B1784,2013-01-14 18:59:00,
2013-01-14 14:04:00,23.5,18.0,30.34,WNW,284,2.0,6.0,79,0.00,,,0.00,WeatherCatV1.10B1784,2013-01-14 19:04:00,
2013-01-14 14:09:00,23.4,17.9,30.33,West,275,4.0,4.0,79,0.00,,,0.00,WeatherCatV1.10B1784,2013-01-14 19:09:00,
2013-01-14 14:14:00,23.5,18.0,30.34,NNW,335,4.0,4.0,79,0.00,,,0.00,WeatherCatV1.10B1784,2013-01-14 19:14:00,
2013-01-14 14:19:00,23.5,18.0,30.34,NNW,342,1.0,2.0,79,0.00,,,0.00,WeatherCatV1.10B1784,2013-01-14 19:19:00,
2013-01-14 14:24:00,23.4,17.6,30.35,WNW,291,5.0,5.0,78,0.00,,,0.00,WeatherCatV1.10B1784,2013-01-14 19:24:00,
2013-01-14 14:29:00,23.4,17.6,30.35,WNW,286,0.0,2.0,78,0.00,,,0.00,WeatherCatV1.10B1784,2013-01-14 19:29:00,
2013-01-14 14:34:00,23.6,18.1,30.35,WNW,287,6.0,9.0,79,0.00,,,0.00,WeatherCatV1.10B1784,2013-01-14 19:34:00,
2013-01-14 14:39:00,23.5,17.7,30.36,WNW,294,2.0,5.0,78,0.00,,,0.00,WeatherCatV1.10B1784,2013-01-14 19:39:00,
2013-01-14 14:44:00,23.5,18.0,30.36,WNW,287,3.0,5.0,79,0.00,,,0.00,WeatherCatV1.10B1784,2013-01-14 19:44:00,
2013-01-14 14:49:00,23.5,18.3,30.36,WNW,298,1.0,3.0,80,0.00,,,0.00,WeatherCatV1.10B1784,2013-01-14 19:49:00,
2013-01-14 14:54:00,23.6,18.1,30.36,WNW,300,2.0,4.0,79,0.00,,,0.00,WeatherCatV1.10B1784,2013-01-14 19:54:00,
2013-01-14 14:59:00,23.6,18.4,30.35,WNW,302,5.0,6.0,80,0.00,,,0.00,WeatherCatV1.10B1784,2013-01-14 19:59:00,
2013-01-14 15:04:00,23.5,18.0,30.35,NW,318,2.0,4.0,79,0.00,,,0.00,WeatherCatV1.10B1784,2013-01-14 20:04:00,
2013-01-14 15:09:00,23.5,17.7,30.35,North,5,3.0,5.0,78,0.00,,,0.00,WeatherCatV1.10B1784,2013-01-14 20:09:00,
2013-01-14 15:14:00,23.5,18.0,30.36,NNW,330,3.0,4.0,79,0.00,,,0.00,WeatherCatV1.10B1784,2013-01-14 20:14:00,
2013-01-14 15:19:00,23.5,18.0,30.36,NW,306,2.0,4.0,79,0.00,,,0.00,WeatherCatV1.10B1784,2013-01-14 20:19:00,
2013-01-14 15:24:00,23.6,18.1,30.37,WNW,293,2.0,5.0,79,0.00,,,0.00,WeatherCatV1.10B1784,2013-01-14 20:24:00,
2013-01-14 15:29:00,23.6,18.1,30.37,NW,306,1.0,5.0,79,0.00,,,0.00,WeatherCatV1.10B1784,2013-01-14 20:29:00,
2013-01-14 15:34:00,23.5,18.0,30.37,NW,312,2.0,3.0,79,0.00,,,0.00,WeatherCatV1.10B1784,2013-01-14 20:34:00,
2013-01-14 15:39:00,23.6,18.1,30.36,West,279,7.0,7.0,79,0.00,,,0.00,WeatherCatV1.10B1784,2013-01-14 20:39:00,
2013-01-14 15:44:00,23.5,17.7,30.36,WNW,290,4.0,5.0,78,0.00,,,0.00,WeatherCatV1.10B1784,2013-01-14 20:44:00,
2013-01-14 15:49:00,23.5,18.0,30.38,WNW,291,3.0,4.0,79,0.00,,,0.00,WeatherCatV1.10B1784,2013-01-14 20:49:00,
2013-01-14 15:54:00,23.6,18.4,30.38,WNW,288,3.0,4.0,80,0.00,,,0.00,WeatherCatV1.10B1784,2013-01-14 20:54:00,
2013-01-14 15:59:00,23.6,18.1,30.38,WNW,282,5.0,6.0,79,0.00,,,0.00,WeatherCatV1.10B1784,2013-01-14 20:59:00,
2013-01-14 16:04:00,23.5,18.0,30.38,WNW,302,3.0,5.0,79,0.00,,,0.00,WeatherCatV1.10B1784,2013-01-14 21:04:00,
2013-01-14 16:09:00,23.5,18.0,30.39,WNW,289,1.0,2.0,79,0.00,,,0.00,WeatherCatV1.10B1784,2013-01-14 21:09:00,
2013-01-14 16:14:00,23.5,18.0,30.40,WSW,248,1.0,4.0,79,0.00,,,0.00,WeatherCatV1.10B1784,2013-01-14 21:14:00,
2013-01-14 16:19:00,23.6,18.4,30.39,WNW,288,1.0,4.0,80,0.00,,,0.00,WeatherCatV1.10B1784,2013-01-14 21:19:00,
2013-01-14 16:24:00,23.6,18.4,30.39,West,263,2.0,4.0,80,0.00,,,0.00,WeatherCatV1.10B1784,2013-01-14 21:24:00,
2013-01-14 16:29:00,23.6,18.4,30.39,WSW,250,3.0,3.0,80,0.00,,,0.00,WeatherCatV1.10B1784,2013-01-14 21:29:00,
2013-01-14 16:34:00,23.6,18.4,30.39,WSW,254,3.0,5.0,80,0.00,,,0.00,WeatherCatV1.10B1784,2013-01-14 21:34:00,
2013-01-14 16:39:00,23.6,18.1,30.40,West,281,3.0,4.0,79,0.00,,,0.00,WeatherCatV1.10B1784,2013-01-14 21:39:00,
2013-01-14 16:45:00,23.6,18.1,30.41,West,259,4.0,5.0,79,0.00,,,0.00,WeatherCatV1.10B1784,2013-01-14 21:45:00,
2013-01-14 16:50:00,23.6,18.4,30.41,WSW,241,3.0,6.0,80,0.00,,,0.00,WeatherCatV1.10B1784,2013-01-14 21:50:00,
2013-01-14 16:55:00,23.6,18.4,30.42,West,269,1.0,3.0,80,0.00,,,0.00,WeatherCatV1.10B1784,2013-01-14 21:55:00,
2013-01-14 17:00:00,23.7,18.5,30.41,WNW,283,2.0,4.0,80,0.00,,,0.00,WeatherCatV1.10B1784,2013-01-14 22:00:00,
2013-01-14 17:05:00,23.6,18.4,30.41,WNW,284,2.0,4.0,80,0.00,,,0.00,WeatherCatV1.10B1784,2013-01-14 22:05:00,
2013-01-14 17:10:00,23.6,18.4,30.42,West,261,1.0,5.0,80,0.00,,,0.00,WeatherCatV1.10B1784,2013-01-14 22:10:00,
2013-01-14 17:15:00,23.6,18.4,30.40,WNW,284,3.0,3.0,80,0.00,,,0.00,WeatherCatV1.10B1784,2013-01-14 22:15:00,
2013-01-14 17:20:00,23.5,18.3,30.40,West,265,3.0,5.0,80,0.00,,,0.00,WeatherCatV1.10B1784,2013-01-14 22:20:00,
2013-01-14 17:25:00,23.5,18.5,30.40,WSW,242,1.0,4.0,81,0.00,,,0.00,WeatherCatV1.10B1784,2013-01-14 22:25:00,
2013-01-14 17:30:00,23.5,18.5,30.40,WSW,252,3.0,5.0,81,0.00,,,0.00,WeatherCatV1.10B1784,2013-01-14 22:30:00,
2013-01-14 17:35:00,23.5,18.5,30.41,WSW,257,2.0,3.0,81,0.00,,,0.00,WeatherCatV1.10B1784,2013-01-14 22:35:00,
2013-01-14 17:40:00,23.5,18.8,30.41,WSW,257,2.0,2.0,82,0.00,,,0.00,WeatherCatV1.10B1784,2013-01-14 22:40:00,
2013-01-14 17:45:00,23.5,18.5,30.40,West,267,1.0,4.0,81,0.00,,,0.00,WeatherCatV1.10B1784,2013-01-14 22:45:00,
2013-01-14 17:50:00,23.5,18.3,30.41,WSW,255,3.0,4.0,80,0.00,,,0.00,WeatherCatV1.10B1784,2013-01-14 22:50:00,
2013-01-14 17:55:00,23.5,18.3,30.41,West,268,2.0,4.0,80,0.00,,,0.00,WeatherCatV1.10B1784,2013-01-14 22:55:00,
2013-01-14 18:00:00,23.4,18.2,30.40,West,269,3.0,4.0,80,0.00,,,0.00,WeatherCatV1.10B1784,2013-01-14 23:00:00,
2013-01-14 18:05:00,23.3,18.1,30.41,West,274,4.0,5.0,80,0.00,,,0.00,WeatherCatV1.10B1784,2013-01-14 23:05:00,
2013-01-14 18:10:00,23.3,18.1,30.41,West,273,4.0,5.0,80,0.00,,,0.00,WeatherCatV1.10B1784,2013-01-14 23:10:00,
2013-01-14 18:15:00,23.3,18.1,30.40,West,281,2.0,2.0,80,0.00,,,0.00,WeatherCatV1.10B1784,2013-01-14 23:15:00,
2013-01-14 18:20:00,23.2,18.0,30.40,West,281,1.0,5.0,80,0.00,,,0.00,WeatherCatV1.10B1784,2013-01-14 23:20:00,
2013-01-14 18:25:00,23.1,18.2,30.40,West,281,2.0,3.0,81,0.00,,,0.00,WeatherCatV1.10B1784,2013-01-14 23:25:00,
2013-01-14 18:30:00,23.0,18.1,30.40,West,281,1.0,2.0,81,0.00,,,0.00,WeatherCatV1.10B1784,2013-01-14 23:30:00,
2013-01-14 18:35:00,22.9,18.2,30.41,West,281,1.0,2.0,82,0.00,,,0.00,WeatherCatV1.10B1784,2013-01-14 23:35:00,
2013-01-14 18:40:00,22.9,18.2,30.40,West,281,0.0,0.0,82,0.00,,,0.00,WeatherCatV1.10B1784,2013-01-14 23:40:00,
2013-01-14 18:45:00,22.8,18.1,30.40,WNW,284,1.0,2.0,82,0.00,,,0.00,WeatherCatV1.10B1784,2013-01-14 23:45:00,
2013-01-14 18:50:00,22.8,18.1,30.40,WNW,284,0.0,1.0,82,0.00,,,0.00,WeatherCatV1.10B1784,2013-01-14 23:50:00,
2013-01-14 18:55:00,22.7,18.0,30.40,WNW,284,1.0,1.0,82,0.00,,,0.00,WeatherCatV1.10B1784,2013-01-14 23:55:00,
2013-01-14 19:00:00,22.7,18.0,30.39,WNW,284,1.0,1.0,82,0.00,,,0.00,WeatherCatV1.10B1784,2013-01-15 00:00:00,
2013-01-14 19:05:00,22.5,17.9,30.39,WNW,284,0.0,0.0,82,0.00,,,0.00,WeatherCatV1.10B1784,2013-01-15 00:05:00,
2013-01-14 19:10:00,22.3,17.9,30.40,WNW,284,0.0,0.0,83,0.00,,,0.00,WeatherCatV1.10B1784,2013-01-15 00:10:00,
2013-01-14 19:15:00,22.1,17.7,30.39,WNW,284,0.0,0.0,83,0.00,,,0.00,WeatherCatV1.10B1784,2013-01-15 00:15:00,
2013-01-14 19:20:00,21.9,17.8,30.39,WNW,284,0.0,0.0,84,0.00,,,0.00,WeatherCatV1.10B1784,2013-01-15 00:20:00,
2013-01-14 19:25:00,21.8,17.7,30.39,WNW,284,0.0,0.0,84,0.00,,,0.00,WeatherCatV1.10B1784,2013-01-15 00:25:00,
2013-01-14 19:30:00,21.6,17.5,30.38,WNW,284,0.0,0.0,84,0.00,,,0.00,WeatherCatV1.10B1784,2013-01-15 00:30:00,
2013-01-14 19:35:00,21.3,17.2,30.39,WNW,284,0.0,0.0,84,0.00,,,0.00,WeatherCatV1.10B1784,2013-01-15 00:35:00,
2013-01-14 19:40:00,20.9,17.1,30.38,WNW,284,0.0,0.0,85,0.00,,,0.00,WeatherCatV1.10B1784,2013-01-15 00:40:00,
2013-01-14 19:45:00,20.6,17.1,30.38,WNW,284,0.0,0.0,86,0.00,,,0.00,WeatherCatV1.10B1784,2013-01-15 00:45:00,
2013-01-14 19:50:00,20.3,16.8,30.38,WNW,284,0.0,0.0,86,0.00,,,0.00,WeatherCatV1.10B1784,2013-01-15 00:50:00,
2013-01-14 19:55:00,20.1,16.9,30.38,WNW,284,0.0,0.0,87,0.00,,,0.00,WeatherCatV1.10B1784,2013-01-15 00:55:00,
2013-01-14 20:00:00,20.1,17.1,30.38,WNW,284,0.0,0.0,88,0.00,,,0.00,WeatherCatV1.10B1784,2013-01-15 01:00:00,
2013-01-14 20:05:00,20.1,17.1,30.38,WNW,284,0.0,0.0,88,0.00,,,0.00,WeatherCatV1.10B1784,2013-01-15 01:05:00,
2013-01-14 20:10:00,20.1,17.1,30.38,WNW,284,0.0,0.0,88,0.00,,,0.00,WeatherCatV1.10B1784,2013-01-15 01:10:00,
2013-01-14 20:15:00,20.0,17.3,30.38,WNW,284,0.0,0.0,89,0.00,,,0.00,WeatherCatV1.10B1784,2013-01-15 01:15:00,
2013-01-14 20:20:00,19.8,16.8,30.38,WNW,284,0.0,0.0,88,0.00,,,0.00,WeatherCatV1.10B1784,2013-01-15 01:20:00,
2013-01-14 20:25:00,19.6,16.9,30.38,WNW,284,0.0,0.0,89,0.00,,,0.00,WeatherCatV1.10B1784,2013-01-15 01:25:00,
2013-01-14 20:30:00,19.4,16.4,30.38,WNW,284,0.0,0.0,88,0.00,,,0.00,WeatherCatV1.10B1784,2013-01-15 01:30:00,
2013-01-14 20:35:00,19.1,16.4,30.37,WNW,284,0.0,0.0,89,0.00,,,0.00,WeatherCatV1.10B1784,2013-01-15 01:35:00,
2013-01-14 20:40:00,18.9,16.2,30.37,WNW,284,0.0,0.0,89,0.00,,,0.00,WeatherCatV1.10B1784,2013-01-15 01:40:00,
2013-01-14 20:45:00,18.7,16.0,30.37,WNW,284,0.0,0.0,89,0.00,,,0.00,WeatherCatV1.10B1784,2013-01-15 01:45:00,
2013-01-14 20:50:00,18.4,16.0,30.37,WNW,284,0.0,0.0,90,0.00,,,0.00,WeatherCatV1.10B1784,2013-01-15 01:50:00,
2013-01-14 20:55:00,18.2,15.8,30.37,WNW,284,0.0,0.0,90,0.00,,,0.00,WeatherCatV1.10B1784,2013-01-15 01:55:00,
2013-01-14 21:00:00,17.9,15.5,30.37,WNW,284,0.0,0.0,90,0.00,,,0.00,WeatherCatV1.10B1784,2013-01-15 02:00:00,
2013-01-14 21:05:00,17.7,15.3,30.37,WNW,284,0.0,0.0,90,0.00,,,0.00,WeatherCatV1.10B1784,2013-01-15 02:05:00,
2013-01-14 21:10:00,17.7,15.5,30.37,WNW,284,0.0,0.0,91,0.00,,,0.00,WeatherCatV1.10B1784,2013-01-15 02:10:00,
2013-01-14 21:15:00,17.6,15.4,30.37,WNW,284,0.0,0.0,91,0.00,,,0.00,WeatherCatV1.10B1784,2013-01-15 02:15:00,
2013-01-14 21:20:00,17.4,15.2,30.37,WNW,284,0.0,0.0,91,0.00,,,0.00,WeatherCatV1.10B1784,2013-01-15 02:20:00,
2013-01-14 21:25:00,17.4,15.2,30.37,WNW,284,0.0,0.0,91,0.00,,,0.00,WeatherCatV1.10B1784,2013-01-15 02:25:00,
2013-01-14 21:30:00,17.4,15.5,30.38,WNW,284,1.0,2.0,92,0.00,,,0.00,WeatherCatV1.10B1784,2013-01-15 02:30:00,
2013-01-14 21:35:00,17.6,15.7,30.38,WNW,283,1.0,2.0,92,0.00,,,0.00,WeatherCatV1.10B1784,2013-01-15 02:35:00,
2013-01-14 21:40:00,17.7,15.8,30.38,WNW,283,2.0,2.0,92,0.00,,,0.00,WeatherCatV1.10B1784,2013-01-15 02:40:00,
2013-01-14 21:45:00,17.6,15.4,30.38,WNW,283,0.0,0.0,91,0.00,,,0.00,WeatherCatV1.10B1784,2013-01-15 02:45:00,
2013-01-14 21:50:00,17.4,15.2,30.37,WNW,283,0.0,0.0,91,0.00,,,0.00,WeatherCatV1.10B1784,2013-01-15 02:50:00,
2013-01-14 21:55:00,17.2,15.0,30.37,WNW,283,0.0,0.0,91,0.00,,,0.00,WeatherCatV1.10B1784,2013-01-15 02:55:00,
2013-01-14 22:00:00,16.9,14.5,30.37,WNW,283,0.0,0.0,90,0.00,,,0.00,WeatherCatV1.10B1784,2013-01-15 03:00:00,
2013-01-14 22:05:00,16.6,14.2,30.36,WNW,283,0.0,0.0,90,0.00,,,0.00,WeatherCatV1.10B1784,2013-01-15 03:05:00,
2013-01-14 22:10:00,16.3,13.9,30.36,WNW,283,0.0,1.0,90,0.00,,,0.00,WeatherCatV1.10B1784,2013-01-15 03:10:00,
2013-01-14 22:15:00,16.1,13.9,30.36,WNW,283,0.0,0.0,91,0.00,,,0.00,WeatherCatV1.10B1784,2013-01-15 03:15:00,
2013-01-14 22:20:00,16.0,13.8,30.36,WNW,283,0.0,0.0,91,0.00,,,0.00,WeatherCatV1.10B1784,2013-01-15 03:20:00,
2013-01-14 22:25:00,15.9,13.7,30.36,WNW,283,1.0,1.0,91,0.00,,,0.00,WeatherCatV1.10B1784,2013-01-15 03:25:00,
2013-01-14 22:30:00,15.7,13.6,30.36,WNW,283,1.0,2.0,91,0.00,,,0.00,WeatherCatV1.10B1784,2013-01-15 03:30:00,
2013-01-14 22:35:00,15.6,13.5,30.36,WNW,283,0.0,0.0,91,0.00,,,0.00,WeatherCatV1.10B1784,2013-01-15 03:35:00,
2013-01-14 22:40:00,15.5,13.4,30.36,WNW,283,0.0,0.0,91,0.00,,,0.00,WeatherCatV1.10B1784,2013-01-15 03:40:00,
2013-01-14 22:45:00,15.6,13.7,30.36,WNW,283,0.0,0.0,92,0.00,,,0.00,WeatherCatV1.10B1784,2013-01-15 03:45:00,
2013-01-14 22:50:00,16.0,14.1,30.36,WNW,283,2.0,2.0,92,0.00,,,0.00,WeatherCatV1.10B1784,2013-01-15 03:50:00,
2013-01-14 22:55:00,16.1,14.2,30.36,WNW,283,0.0,0.0,92,0.00,,,0.00,WeatherCatV1.10B1784,2013-01-15 03:55:00,
2013-01-14 23:00:00,16.0,13.8,30.36,WNW,283,0.0,0.0,91,0.00,,,0.00,WeatherCatV1.10B1784,2013-01-15 04:00:00,
2013-01-14 23:05:00,15.9,13.7,30.36,WNW,283,0.0,0.0,91,0.00,,,0.00,WeatherCatV1.10B1784,2013-01-15 04:05:00,
2013-01-14 23:10:00,15.8,13.6,30.36,WNW,283,0.0,0.0,91,0.00,,,0.00,WeatherCatV1.10B1784,2013-01-15 04:10:00,
2013-01-14 23:15:00,15.7,13.6,30.36,WNW,283,0.0,0.0,91,0.00,,,0.00,WeatherCatV1.10B1784,2013-01-15 04:15:00,
2013-01-14 23:20:00,15.5,13.4,30.36,WNW,283,0.0,0.0,91,0.00,,,0.00,WeatherCatV1.10B1784,2013-01-15 04:20:00,
2013-01-14 23:25:00,15.5,13.4,30.36,WNW,283,0.0,0.0,91,0.00,,,0.00,WeatherCatV1.10B1784,2013-01-15 04:25:00,
2013-01-14 23:30:00,15.5,13.6,30.37,WNW,283,0.0,0.0,92,0.00,,,0.00,WeatherCatV1.10B1784,2013-01-15 04:30:00,
2013-01-14 23:35:00,15.5,13.6,30.37,WNW,283,0.0,0.0,92,0.00,,,0.00,WeatherCatV1.10B1784,2013-01-15 04:35:00,
2013-01-14 23:40:00,15.5,13.6,30.37,WNW,283,0.0,0.0,92,0.00,,,0.00,WeatherCatV1.10B1784,2013-01-15 04:40:00,
2013-01-14 23:45:00,15.5,13.6,30.37,WNW,283,0.0,0.0,92,0.00,,,0.00,WeatherCatV1.10B1784,2013-01-15 04:45:00,
2013-01-14 23:50:00,15.4,13.3,30.37,WNW,283,0.0,0.0,91,0.00,,,0.00,WeatherCatV1.10B1784,2013-01-15 04:50:00,
2013-01-14 23:55:00,15.4,13.3,30.38,WNW,283,0.0,0.0,91,0.00,,,0.00,WeatherCatV1.10B1784,2013-01-15 04:55:00,